Linwood, Minnesota
Current Conditions -  °F | °C
As of 10:55 AM on Sunday 23 Nov 2014 (Local Time) from KCBG Reporting Station
Drizzle Drizzle  
Wind Chill: 45°   Ceiling: Unl
Heat Index: 45°   Visibility: 2.5mi
Dew Point: 37°   Wind: 3mph
Humidity: 76%   Direction: 230°SW
Pressure: 29.43"   Gusts: NA
Location:  45.3906°N, 93.2311°W
Report Text: KCBG 231655Z AUTO 23003KT 2 1/2SM -DZ SCT070 07/03 A2943 RMK AO2
Loading
Personal Weather Stations






























Interactive Weather Map New forecast layout! Learn more

10-Day Weather Forecast

Advertisements
Track Severe Weather on mobile